sensor_id;sensor_type;location;lat;lon;timestamp;temperature;humidity
9083;DHT22;4577;48.704;9.000;2022-07-18T00:00:44;21.40;35.30
9083;DHT22;4577;48.704;9.000;2022-07-18T00:03:09;21.40;35.30
9083;DHT22;4577;48.704;9.000;2022-07-18T00:08:01;21.50;35.20
9083;DHT22;4577;48.704;9.000;2022-07-18T00:10:27;21.20;35.30
9083;DHT22;4577;48.704;9.000;2022-07-18T00:12:53;21.10;35.90
9083;DHT22;4577;48.704;9.000;2022-07-18T00:15:19;21.40;35.80
9083;DHT22;4577;48.704;9.000;2022-07-18T00:17:44;21.00;36.00
9083;DHT22;4577;48.704;9.000;2022-07-18T00:20:11;20.80;36.10
9083;DHT22;4577;48.704;9.000;2022-07-18T00:25:04;20.80;36.10
9083;DHT22;4577;48.704;9.000;2022-07-18T00:27:30;20.60;36.30
9083;DHT22;4577;48.704;9.000;2022-07-18T00:32:21;20.70;36.50
9083;DHT22;4577;48.704;9.000;2022-07-18T00:37:13;20.60;35.70
9083;DHT22;4577;48.704;9.000;2022-07-18T00:42:05;20.50;36.20
9083;DHT22;4577;48.704;9.000;2022-07-18T00:44:30;20.80;35.80
9083;DHT22;4577;48.704;9.000;2022-07-18T00:46:59;20.50;35.90
9083;DHT22;4577;48.704;9.000;2022-07-18T00:49:26;20.60;36.20
9083;DHT22;4577;48.704;9.000;2022-07-18T00:54:19;20.40;36.10
9083;DHT22;4577;48.704;9.000;2022-07-18T00:56:46;20.40;36.60
9083;DHT22;4577;48.704;9.000;2022-07-18T00:59:13;20.30;36.80
9083;DHT22;4577;48.704;9.000;2022-07-18T01:01:39;20.20;37.10
9083;DHT22;4577;48.704;9.000;2022-07-18T01:04:09;19.90;37.30
9083;DHT22;4577;48.704;9.000;2022-07-18T01:06:35;20.10;37.40
9083;DHT22;4577;48.704;9.000;2022-07-18T01:09:01;20.20;36.90
9083;DHT22;4577;48.704;9.000;2022-07-18T01:11:27;20.00;37.20
9083;DHT22;4577;48.704;9.000;2022-07-18T01:16:20;20.00;37.30
9083;DHT22;4577;48.704;9.000;2022-07-18T01:21:16;20.20;36.70
9083;DHT22;4577;48.704;9.000;2022-07-18T01:23:43;20.20;37.30
9083;DHT22;4577;48.704;9.000;2022-07-18T01:26:10;20.00;37.20
9083;DHT22;4577;48.704;9.000;2022-07-18T01:28:37;20.20;37.30
9083;DHT22;4577;48.704;9.000;2022-07-18T01:31:03;20.30;36.10
9083;DHT22;4577;48.704;9.000;2022-07-18T01:33:31;20.10;35.80
9083;DHT22;4577;48.704;9.000;2022-07-18T01:35:59;19.90;36.50
9083;DHT22;4577;48.704;9.000;2022-07-18T01:40:51;19.70;36.80
9083;DHT22;4577;48.704;9.000;2022-07-18T01:43:17;19.60;37.20
9083;DHT22;4577;48.704;9.000;2022-07-18T01:45:42;19.50;37.60
9083;DHT22;4577;48.704;9.000;2022-07-18T01:48:08;19.60;37.20
9083;DHT22;4577;48.704;9.000;2022-07-18T01:50:34;19.40;37.30
9083;DHT22;4577;48.704;9.000;2022-07-18T01:57:52;19.70;37.20
9083;DHT22;4577;48.704;9.000;2022-07-18T02:12:33;19.40;37.60
9083;DHT22;4577;48.704;9.000;2022-07-18T02:14:59;19.60;37.20
9083;DHT22;4577;48.704;9.000;2022-07-18T02:17:25;19.50;37.00
9083;DHT22;4577;48.704;9.000;2022-07-18T02:22:16;19.40;36.90
9083;DHT22;4577;48.704;9.000;2022-07-18T02:24:42;19.20;37.10
9083;DHT22;4577;48.704;9.000;2022-07-18T02:29:34;19.30;37.30
9083;DHT22;4577;48.704;9.000;2022-07-18T02:36:52;19.20;38.30
9083;DHT22;4577;48.704;9.000;2022-07-18T02:44:12;19.10;37.90
9083;DHT22;4577;48.704;9.000;2022-07-18T02:46:37;19.00;38.50
9083;DHT22;4577;48.704;9.000;2022-07-18T02:49:03;19.20;38.30
9083;DHT22;4577;48.704;9.000;2022-07-18T02:51:29;19.20;37.60
9083;DHT22;4577;48.704;9.000;2022-07-18T02:53:55;19.00;37.90
9083;DHT22;4577;48.704;9.000;2022-07-18T02:56:20;18.70;38.00
9083;DHT22;4577;48.704;9.000;2022-07-18T03:01:12;19.00;37.70
9083;DHT22;4577;48.704;9.000;2022-07-18T03:03:38;19.00;37.70
9083;DHT22;4577;48.704;9.000;2022-07-18T03:08:30;18.80;37.80
9083;DHT22;4577;48.704;9.000;2022-07-18T03:10:55;18.80;38.10
9083;DHT22;4577;48.704;9.000;2022-07-18T03:15:47;18.90;38.40
9083;DHT22;4577;48.704;9.000;2022-07-18T03:20:39;18.80;37.60
9083;DHT22;4577;48.704;9.000;2022-07-18T03:23:06;19.00;37.30
9083;DHT22;4577;48.704;9.000;2022-07-18T03:25:32;18.50;37.40
9083;DHT22;4577;48.704;9.000;2022-07-18T03:27:58;18.00;38.40
9083;DHT22;4577;48.704;9.000;2022-07-18T03:30:24;18.40;38.60
9083;DHT22;4577;48.704;9.000;2022-07-18T03:32:49;18.70;37.70
9083;DHT22;4577;48.704;9.000;2022-07-18T03:35:15;18.80;37.80
9083;DHT22;4577;48.704;9.000;2022-07-18T03:40:08;18.10;37.80
9083;DHT22;4577;48.704;9.000;2022-07-18T03:42:37;18.30;38.00
9083;DHT22;4577;48.704;9.000;2022-07-18T03:45:04;18.00;38.50
9083;DHT22;4577;48.704;9.000;2022-07-18T03:47:29;18.00;38.60
9083;DHT22;4577;48.704;9.000;2022-07-18T03:49:55;18.10;38.60
9083;DHT22;4577;48.704;9.000;2022-07-18T03:52:21;18.10;38.40
9083;DHT22;4577;48.704;9.000;2022-07-18T03:54:47;18.30;38.40
9083;DHT22;4577;48.704;9.000;2022-07-18T03:59:38;18.20;39.00
9083;DHT22;4577;48.704;9.000;2022-07-18T04:04:30;18.30;39.30
9083;DHT22;4577;48.704;9.000;2022-07-18T04:06:56;18.20;39.20
9083;DHT22;4577;48.704;9.000;2022-07-18T04:09:25;18.30;39.00
9083;DHT22;4577;48.704;9.000;2022-07-18T04:16:43;18.90;39.00
9083;DHT22;4577;48.704;9.000;2022-07-18T04:19:09;18.50;38.70
9083;DHT22;4577;48.704;9.000;2022-07-18T04:24:02;18.60;39.00
9083;DHT22;4577;48.704;9.000;2022-07-18T04:26:27;18.60;39.60
9083;DHT22;4577;48.704;9.000;2022-07-18T04:28:53;18.50;39.30
9083;DHT22;4577;48.704;9.000;2022-07-18T04:31:19;18.40;39.40
9083;DHT22;4577;48.704;9.000;2022-07-18T04:33:45;18.50;39.70
9083;DHT22;4577;48.704;9.000;2022-07-18T04:36:11;18.50;39.80
9083;DHT22;4577;48.704;9.000;2022-07-18T04:38:37;18.20;40.00
9083;DHT22;4577;48.704;9.000;2022-07-18T04:41:04;18.10;40.30
9083;DHT22;4577;48.704;9.000;2022-07-18T04:43:30;18.10;40.60
9083;DHT22;4577;48.704;9.000;2022-07-18T04:45:56;18.20;40.40
9083;DHT22;4577;48.704;9.000;2022-07-18T04:48:21;18.30;41.00
9083;DHT22;4577;48.704;9.000;2022-07-18T04:50:47;18.40;40.30
9083;DHT22;4577;48.704;9.000;2022-07-18T04:53:13;18.20;40.20
9083;DHT22;4577;48.704;9.000;2022-07-18T04:55:38;17.90;40.20
9083;DHT22;4577;48.704;9.000;2022-07-18T04:58:04;17.80;41.10
9083;DHT22;4577;48.704;9.000;2022-07-18T05:02:57;17.80;41.20
9083;DHT22;4577;48.704;9.000;2022-07-18T05:05:24;17.90;41.00
9083;DHT22;4577;48.704;9.000;2022-07-18T05:07:51;17.90;41.50
9083;DHT22;4577;48.704;9.000;2022-07-18T05:10:18;18.30;41.30
9083;DHT22;4577;48.704;9.000;2022-07-18T05:12:47;18.60;41.10
9083;DHT22;4577;48.704;9.000;2022-07-18T05:15:14;18.80;40.50
9083;DHT22;4577;48.704;9.000;2022-07-18T05:17:41;18.60;40.30
9083;DHT22;4577;48.704;9.000;2022-07-18T05:20:09;18.50;40.50
9083;DHT22;4577;48.704;9.000;2022-07-18T05:22:35;18.30;40.40
9083;DHT22;4577;48.704;9.000;2022-07-18T05:25:04;18.30;40.50
9083;DHT22;4577;48.704;9.000;2022-07-18T05:27:30;18.30;40.50
9083;DHT22;4577;48.704;9.000;2022-07-18T05:29:56;18.30;40.60
9083;DHT22;4577;48.704;9.000;2022-07-18T05:32:22;18.40;40.90
9083;DHT22;4577;48.704;9.000;2022-07-18T05:34:47;18.40;41.00
9083;DHT22;4577;48.704;9.000;2022-07-18T05:39:39;18.60;40.60
9083;DHT22;4577;48.704;9.000;2022-07-18T05:42:05;18.50;40.30
9083;DHT22;4577;48.704;9.000;2022-07-18T05:44:31;18.60;40.30
9083;DHT22;4577;48.704;9.000;2022-07-18T05:46:56;18.70;40.30
9083;DHT22;4577;48.704;9.000;2022-07-18T05:49:22;18.70;40.20
9083;DHT22;4577;48.704;9.000;2022-07-18T05:51:48;18.70;40.50
9083;DHT22;4577;48.704;9.000;2022-07-18T05:56:46;18.80;40.30
9083;DHT22;4577;48.704;9.000;2022-07-18T05:59:11;18.90;39.90
9083;DHT22;4577;48.704;9.000;2022-07-18T06:01:38;18.80;39.50
9083;DHT22;4577;48.704;9.000;2022-07-18T06:04:04;18.90;39.40
9083;DHT22;4577;48.704;9.000;2022-07-18T06:06:30;19.00;39.40
9083;DHT22;4577;48.704;9.000;2022-07-18T06:08:56;19.00;39.40
9083;DHT22;4577;48.704;9.000;2022-07-18T06:11:21;19.10;38.90
9083;DHT22;4577;48.704;9.000;2022-07-18T06:13:47;21.70;40.80
9083;DHT22;4577;48.704;9.000;2022-07-18T06:16:13;19.10;38.50
9083;DHT22;4577;48.704;9.000;2022-07-18T06:18:38;19.10;38.40
9083;DHT22;4577;48.704;9.000;2022-07-18T06:21:04;19.30;38.30
9083;DHT22;4577;48.704;9.000;2022-07-18T06:23:30;19.30;38.20
9083;DHT22;4577;48.704;9.000;2022-07-18T06:25:57;19.50;37.60
9083;DHT22;4577;48.704;9.000;2022-07-18T06:28:23;19.50;37.40
9083;DHT22;4577;48.704;9.000;2022-07-18T06:33:16;19.60;37.20
9083;DHT22;4577;48.704;9.000;2022-07-18T06:38:08;19.60;36.70
9083;DHT22;4577;48.704;9.000;2022-07-18T06:40:34;19.70;36.60
9083;DHT22;4577;48.704;9.000;2022-07-18T06:43:00;19.70;36.60
9083;DHT22;4577;48.704;9.000;2022-07-18T06:45:25;20.00;36.80
9083;DHT22;4577;48.704;9.000;2022-07-18T06:47:51;19.90;36.90
9083;DHT22;4577;48.704;9.000;2022-07-18T06:52:44;20.00;37.10
9083;DHT22;4577;48.704;9.000;2022-07-18T06:55:11;20.00;36.70
9083;DHT22;4577;48.704;9.000;2022-07-18T06:57:38;20.10;36.90
9083;DHT22;4577;48.704;9.000;2022-07-18T07:00:05;20.00;37.60
9083;DHT22;4577;48.704;9.000;2022-07-18T07:02:32;20.20;35.00
9083;DHT22;4577;48.704;9.000;2022-07-18T07:04:58;20.10;34.80
9083;DHT22;4577;48.704;9.000;2022-07-18T07:07:23;20.10;35.00
9083;DHT22;4577;48.704;9.000;2022-07-18T07:09:49;20.20;35.40
9083;DHT22;4577;48.704;9.000;2022-07-18T07:12:15;20.10;35.70
9083;DHT22;4577;48.704;9.000;2022-07-18T07:14:40;20.10;35.50
9083;DHT22;4577;48.704;9.000;2022-07-18T07:17:06;20.10;36.10
9083;DHT22;4577;48.704;9.000;2022-07-18T07:19:32;20.00;36.00
9083;DHT22;4577;48.704;9.000;2022-07-18T07:24:23;20.20;35.80
9083;DHT22;4577;48.704;9.000;2022-07-18T07:29:15;20.60;34.40
9083;DHT22;4577;48.704;9.000;2022-07-18T07:31:41;20.70;34.30
9083;DHT22;4577;48.704;9.000;2022-07-18T07:34:08;20.60;34.60
9083;DHT22;4577;48.704;9.000;2022-07-18T07:39:01;20.50;34.60
9083;DHT22;4577;48.704;9.000;2022-07-18T07:41:27;20.50;35.30
9083;DHT22;4577;48.704;9.000;2022-07-18T07:43:52;20.50;35.90
9083;DHT22;4577;48.704;9.000;2022-07-18T07:46:18;20.40;34.90
9083;DHT22;4577;48.704;9.000;2022-07-18T07:48:44;20.70;34.40
9083;DHT22;4577;48.704;9.000;2022-07-18T07:51:10;20.80;35.40
9083;DHT22;4577;48.704;9.000;2022-07-18T07:53:36;20.70;35.50
9083;DHT22;4577;48.704;9.000;2022-07-18T07:56:02;20.60;35.60
9083;DHT22;4577;48.704;9.000;2022-07-18T08:00:53;21.00;35.60
9083;DHT22;4577;48.704;9.000;2022-07-18T08:05:48;21.00;35.40
9083;DHT22;4577;48.704;9.000;2022-07-18T08:08:15;20.90;35.40
9083;DHT22;4577;48.704;9.000;2022-07-18T08:10:41;21.20;35.90
9083;DHT22;4577;48.704;9.000;2022-07-18T08:13:07;21.00;35.90
9083;DHT22;4577;48.704;9.000;2022-07-18T08:15:33;21.10;35.70
9083;DHT22;4577;48.704;9.000;2022-07-18T08:17:59;21.00;35.10
9083;DHT22;4577;48.704;9.000;2022-07-18T08:20:25;21.00;35.00
9083;DHT22;4577;48.704;9.000;2022-07-18T08:23:07;21.00;35.10
9083;DHT22;4577;48.704;9.000;2022-07-18T08:25:39;21.20;33.00
9083;DHT22;4577;48.704;9.000;2022-07-18T08:28:06;21.30;32.40
9083;DHT22;4577;48.704;9.000;2022-07-18T08:30:33;21.30;32.60
9083;DHT22;4577;48.704;9.000;2022-07-18T08:32:59;21.40;32.90
9083;DHT22;4577;48.704;9.000;2022-07-18T08:35:26;21.60;31.50
9083;DHT22;4577;48.704;9.000;2022-07-18T08:37:52;21.60;31.30
9083;DHT22;4577;48.704;9.000;2022-07-18T08:40:18;21.70;31.20
9083;DHT22;4577;48.704;9.000;2022-07-18T08:42:44;21.80;31.70
9083;DHT22;4577;48.704;9.000;2022-07-18T08:45:10;21.80;31.20
9083;DHT22;4577;48.704;9.000;2022-07-18T08:47:36;21.90;30.70
9083;DHT22;4577;48.704;9.000;2022-07-18T08:50:03;21.80;31.10
9083;DHT22;4577;48.704;9.000;2022-07-18T08:54:56;22.30;29.70
9083;DHT22;4577;48.704;9.000;2022-07-18T08:57:22;22.70;30.40
9083;DHT22;4577;48.704;9.000;2022-07-18T08:59:48;22.60;30.00
9083;DHT22;4577;48.704;9.000;2022-07-18T09:02:14;22.70;30.00
9083;DHT22;4577;48.704;9.000;2022-07-18T09:04:44;22.80;29.70
9083;DHT22;4577;48.704;9.000;2022-07-18T09:07:22;22.60;30.10
9083;DHT22;4577;48.704;9.000;2022-07-18T09:09:56;22.40;30.60
9083;DHT22;4577;48.704;9.000;2022-07-18T09:12:24;22.80;30.70
9083;DHT22;4577;48.704;9.000;2022-07-18T09:14:51;22.90;29.50
9083;DHT22;4577;48.704;9.000;2022-07-18T09:20:06;22.80;30.00
9083;DHT22;4577;48.704;9.000;2022-07-18T09:22:38;22.60;30.50
9083;DHT22;4577;48.704;9.000;2022-07-18T09:27:34;22.90;28.70
9083;DHT22;4577;48.704;9.000;2022-07-18T09:30:10;22.80;29.50
9083;DHT22;4577;48.704;9.000;2022-07-18T09:32:39;22.80;30.20
9083;DHT22;4577;48.704;9.000;2022-07-18T09:35:06;22.70;29.90
9083;DHT22;4577;48.704;9.000;2022-07-18T09:37:33;22.70;29.40
9083;DHT22;4577;48.704;9.000;2022-07-18T09:40:20;23.00;28.70
9083;DHT22;4577;48.704;9.000;2022-07-18T09:42:54;23.30;27.50
9083;DHT22;4577;48.704;9.000;2022-07-18T09:45:24;23.40;27.80
9083;DHT22;4577;48.704;9.000;2022-07-18T09:47:56;23.30;27.60
9083;DHT22;4577;48.704;9.000;2022-07-18T09:50:31;23.20;28.50
9083;DHT22;4577;48.704;9.000;2022-07-18T09:53:15;23.40;28.20
9083;DHT22;4577;48.704;9.000;2022-07-18T09:58:22;23.10;28.60
9083;DHT22;4577;48.704;9.000;2022-07-18T10:00:48;23.00;27.70
9083;DHT22;4577;48.704;9.000;2022-07-18T10:03:14;23.40;27.40
9083;DHT22;4577;48.704;9.000;2022-07-18T10:05:41;23.30;28.10
9083;DHT22;4577;48.704;9.000;2022-07-18T10:08:09;23.50;28.20
9083;DHT22;4577;48.704;9.000;2022-07-18T10:10:36;23.40;27.80
9083;DHT22;4577;48.704;9.000;2022-07-18T10:13:03;23.60;26.60
9083;DHT22;4577;48.704;9.000;2022-07-18T10:15:31;23.70;27.20
9083;DHT22;4577;48.704;9.000;2022-07-18T10:20:39;23.70;26.60
9083;DHT22;4577;48.704;9.000;2022-07-18T10:26:34;23.90;27.00
9083;DHT22;4577;48.704;9.000;2022-07-18T10:32:02;24.30;26.80
9083;DHT22;4577;48.704;9.000;2022-07-18T10:34:34;24.20;27.20
9083;DHT22;4577;48.704;9.000;2022-07-18T10:39:39;24.20;27.20
9083;DHT22;4577;48.704;9.000;2022-07-18T10:45:49;24.10;27.00
9083;DHT22;4577;48.704;9.000;2022-07-18T10:49:05;24.20;27.40
9083;DHT22;4577;48.704;9.000;2022-07-18T10:51:33;24.00;27.80
9083;DHT22;4577;48.704;9.000;2022-07-18T10:58:58;24.40;27.00
9083;DHT22;4577;48.704;9.000;2022-07-18T11:01:25;24.40;26.70
9083;DHT22;4577;48.704;9.000;2022-07-18T11:04:21;24.90;25.10
9083;DHT22;4577;48.704;9.000;2022-07-18T11:07:12;24.60;26.10
9083;DHT22;4577;48.704;9.000;2022-07-18T11:09:48;24.80;26.00
9083;DHT22;4577;48.704;9.000;2022-07-18T11:12:43;24.90;25.90
9083;DHT22;4577;48.704;9.000;2022-07-18T11:15:11;24.50;27.30
9083;DHT22;4577;48.704;9.000;2022-07-18T11:17:57;24.60;27.50
9083;DHT22;4577;48.704;9.000;2022-07-18T11:26:37;24.90;26.20
9083;DHT22;4577;48.704;9.000;2022-07-18T11:36:59;25.00;25.60
9083;DHT22;4577;48.704;9.000;2022-07-18T11:40:11;25.20;25.10
9083;DHT22;4577;48.704;9.000;2022-07-18T11:42:38;25.60;24.90
9083;DHT22;4577;48.704;9.000;2022-07-18T11:45:06;25.50;24.90
9083;DHT22;4577;48.704;9.000;2022-07-18T11:50:14;25.00;25.70
9083;DHT22;4577;48.704;9.000;2022-07-18T11:52:40;25.20;26.70
9083;DHT22;4577;48.704;9.000;2022-07-18T11:55:06;25.30;26.60
9083;DHT22;4577;48.704;9.000;2022-07-18T11:57:33;25.40;25.90
9083;DHT22;4577;48.704;9.000;2022-07-18T12:00:00;25.30;26.10
9083;DHT22;4577;48.704;9.000;2022-07-18T12:05:45;24.90;26.30
9083;DHT22;4577;48.704;9.000;2022-07-18T12:08:32;25.20;26.10
9083;DHT22;4577;48.704;9.000;2022-07-18T12:11:09;25.20;26.40
9083;DHT22;4577;48.704;9.000;2022-07-18T12:13:50;25.90;24.30
9083;DHT22;4577;48.704;9.000;2022-07-18T12:18:55;26.20;23.30
9083;DHT22;4577;48.704;9.000;2022-07-18T12:21:21;26.40;23.60
9083;DHT22;4577;48.704;9.000;2022-07-18T12:23:47;26.40;23.40
9083;DHT22;4577;48.704;9.000;2022-07-18T12:26:29;26.20;23.70
9083;DHT22;4577;48.704;9.000;2022-07-18T12:29:08;26.40;23.50
9083;DHT22;4577;48.704;9.000;2022-07-18T12:31:43;26.40;23.80
9083;DHT22;4577;48.704;9.000;2022-07-18T12:34:15;25.90;24.50
9083;DHT22;4577;48.704;9.000;2022-07-18T12:36:54;25.70;25.10
9083;DHT22;4577;48.704;9.000;2022-07-18T12:39:29;25.80;25.30
9083;DHT22;4577;48.704;9.000;2022-07-18T12:44:21;25.90;25.10
9083;DHT22;4577;48.704;9.000;2022-07-18T12:54:05;26.40;23.70
9083;DHT22;4577;48.704;9.000;2022-07-18T12:58:57;26.80;24.00
9083;DHT22;4577;48.704;9.000;2022-07-18T13:01:23;26.60;23.90
9083;DHT22;4577;48.704;9.000;2022-07-18T13:03:49;26.50;23.90
9083;DHT22;4577;48.704;9.000;2022-07-18T13:06:14;26.60;24.40
9083;DHT22;4577;48.704;9.000;2022-07-18T13:08:40;26.60;24.20
9083;DHT22;4577;48.704;9.000;2022-07-18T13:13:32;27.60;21.80
9083;DHT22;4577;48.704;9.000;2022-07-18T13:15:58;27.50;22.10
9083;DHT22;4577;48.704;9.000;2022-07-18T13:18:24;27.70;21.60
9083;DHT22;4577;48.704;9.000;2022-07-18T13:20:49;28.00;21.10
9083;DHT22;4577;48.704;9.000;2022-07-18T13:23:15;27.80;21.00
9083;DHT22;4577;48.704;9.000;2022-07-18T13:25:41;27.80;21.10
9083;DHT22;4577;48.704;9.000;2022-07-18T13:28:07;27.90;21.50
9083;DHT22;4577;48.704;9.000;2022-07-18T13:30:33;27.60;22.80
9083;DHT22;4577;48.704;9.000;2022-07-18T13:32:59;27.50;22.40
9083;DHT22;4577;48.704;9.000;2022-07-18T13:37:51;27.80;22.40
9083;DHT22;4577;48.704;9.000;2022-07-18T13:42:44;27.70;22.50
9083;DHT22;4577;48.704;9.000;2022-07-18T13:47:36;27.60;23.10
9083;DHT22;4577;48.704;9.000;2022-07-18T13:50:02;28.00;22.50
9083;DHT22;4577;48.704;9.000;2022-07-18T13:54:54;27.90;23.00
9083;DHT22;4577;48.704;9.000;2022-07-18T13:57:21;27.70;22.90
9083;DHT22;4577;48.704;9.000;2022-07-18T14:04:38;28.30;22.60
9083;DHT22;4577;48.704;9.000;2022-07-18T14:09:32;28.90;20.50
9083;DHT22;4577;48.704;9.000;2022-07-18T14:11:58;28.90;20.60
9083;DHT22;4577;48.704;9.000;2022-07-18T14:14:23;28.90;20.90
9083;DHT22;4577;48.704;9.000;2022-07-18T14:16:49;29.00;21.20
9083;DHT22;4577;48.704;9.000;2022-07-18T14:24:07;29.40;20.50
9083;DHT22;4577;48.704;9.000;2022-07-18T14:26:33;29.40;20.40
9083;DHT22;4577;48.704;9.000;2022-07-18T14:28:58;29.50;19.90
9083;DHT22;4577;48.704;9.000;2022-07-18T14:38:42;29.90;20.20
9083;DHT22;4577;48.704;9.000;2022-07-18T14:53:19;30.10;19.90
9083;DHT22;4577;48.704;9.000;2022-07-18T14:58:11;30.00;19.70
9083;DHT22;4577;48.704;9.000;2022-07-18T15:00:37;30.20;19.60
9083;DHT22;4577;48.704;9.000;2022-07-18T15:05:29;30.50;19.00
9083;DHT22;4577;48.704;9.000;2022-07-18T15:07:54;30.60;18.50
9083;DHT22;4577;48.704;9.000;2022-07-18T15:12:46;30.70;19.00
9083;DHT22;4577;48.704;9.000;2022-07-18T15:15:12;30.70;19.20
9083;DHT22;4577;48.704;9.000;2022-07-18T15:20:05;30.70;18.90
9083;DHT22;4577;48.704;9.000;2022-07-18T15:22:31;30.70;18.60
9083;DHT22;4577;48.704;9.000;2022-07-18T15:24:57;30.90;18.60
9083;DHT22;4577;48.704;9.000;2022-07-18T15:27:23;30.90;19.10
9083;DHT22;4577;48.704;9.000;2022-07-18T15:32:14;31.00;18.00
9083;DHT22;4577;48.704;9.000;2022-07-18T15:34:40;31.00;18.00
9083;DHT22;4577;48.704;9.000;2022-07-18T15:37:07;31.00;17.50
9083;DHT22;4577;48.704;9.000;2022-07-18T15:39:33;31.00;18.00
9083;DHT22;4577;48.704;9.000;2022-07-18T15:41:59;30.90;17.60
9083;DHT22;4577;48.704;9.000;2022-07-18T15:44:25;30.70;18.10
9083;DHT22;4577;48.704;9.000;2022-07-18T15:46:51;30.60;18.60
9083;DHT22;4577;48.704;9.000;2022-07-18T15:54:13;30.70;19.00
9083;DHT22;4577;48.704;9.000;2022-07-18T16:01:31;30.90;18.70
9083;DHT22;4577;48.704;9.000;2022-07-18T16:08:49;30.80;19.00
9083;DHT22;4577;48.704;9.000;2022-07-18T16:11:15;30.70;19.20
9083;DHT22;4577;48.704;9.000;2022-07-18T16:13:41;30.70;19.20
9083;DHT22;4577;48.704;9.000;2022-07-18T16:16:07;30.90;19.30
9083;DHT22;4577;48.704;9.000;2022-07-18T16:20:59;30.60;19.90
9083;DHT22;4577;48.704;9.000;2022-07-18T16:35:35;30.80;20.10
9083;DHT22;4577;48.704;9.000;2022-07-18T16:42:55;31.10;18.70
9083;DHT22;4577;48.704;9.000;2022-07-18T16:45:21;30.80;19.30
9083;DHT22;4577;48.704;9.000;2022-07-18T16:47:48;31.10;19.40
9083;DHT22;4577;48.704;9.000;2022-07-18T16:50:14;31.10;19.80
9083;DHT22;4577;48.704;9.000;2022-07-18T16:52:40;31.20;19.30
9083;DHT22;4577;48.704;9.000;2022-07-18T16:55:07;31.30;19.50
9083;DHT22;4577;48.704;9.000;2022-07-18T16:57:33;31.30;19.40
9083;DHT22;4577;48.704;9.000;2022-07-18T16:59:59;31.50;18.60
9083;DHT22;4577;48.704;9.000;2022-07-18T17:02:25;31.50;18.90
9083;DHT22;4577;48.704;9.000;2022-07-18T17:04:52;31.50;18.40
9083;DHT22;4577;48.704;9.000;2022-07-18T17:07:18;31.50;18.90
9083;DHT22;4577;48.704;9.000;2022-07-18T17:09:44;31.60;18.50
9083;DHT22;4577;48.704;9.000;2022-07-18T17:12:10;31.40;18.60
9083;DHT22;4577;48.704;9.000;2022-07-18T17:14:36;31.50;18.00
9083;DHT22;4577;48.704;9.000;2022-07-18T17:17:03;31.40;17.70
9083;DHT22;4577;48.704;9.000;2022-07-18T17:19:29;31.30;17.80
9083;DHT22;4577;48.704;9.000;2022-07-18T17:24:24;31.30;19.20
9083;DHT22;4577;48.704;9.000;2022-07-18T17:29:16;31.10;18.30
9083;DHT22;4577;48.704;9.000;2022-07-18T17:31:42;31.20;17.90
9083;DHT22;4577;48.704;9.000;2022-07-18T17:34:08;31.10;18.50
9083;DHT22;4577;48.704;9.000;2022-07-18T17:36:34;31.00;18.50
9083;DHT22;4577;48.704;9.000;2022-07-18T17:39:02;31.00;18.10
9083;DHT22;4577;48.704;9.000;2022-07-18T17:43:54;31.00;19.60
9083;DHT22;4577;48.704;9.000;2022-07-18T17:48:49;31.10;19.30
9083;DHT22;4577;48.704;9.000;2022-07-18T17:51:16;31.20;19.00
9083;DHT22;4577;48.704;9.000;2022-07-18T17:56:08;31.30;18.80
9083;DHT22;4577;48.704;9.000;2022-07-18T17:58:37;31.40;18.60
9083;DHT22;4577;48.704;9.000;2022-07-18T18:01:02;31.50;17.90
9083;DHT22;4577;48.704;9.000;2022-07-18T18:03:28;31.30;18.60
9083;DHT22;4577;48.704;9.000;2022-07-18T18:05:54;31.40;18.80
9083;DHT22;4577;48.704;9.000;2022-07-18T18:08:20;31.50;18.50
9083;DHT22;4577;48.704;9.000;2022-07-18T18:10:46;31.60;18.90
9083;DHT22;4577;48.704;9.000;2022-07-18T18:13:11;31.50;18.60
9083;DHT22;4577;48.704;9.000;2022-07-18T18:15:37;31.50;18.70
9083;DHT22;4577;48.704;9.000;2022-07-18T18:18:03;31.50;18.50
9083;DHT22;4577;48.704;9.000;2022-07-18T18:22:55;31.30;19.30
9083;DHT22;4577;48.704;9.000;2022-07-18T18:25:21;31.30;19.50
9083;DHT22;4577;48.704;9.000;2022-07-18T18:27:47;31.20;19.50
9083;DHT22;4577;48.704;9.000;2022-07-18T18:30:12;31.20;19.30
9083;DHT22;4577;48.704;9.000;2022-07-18T18:32:40;31.00;19.80
9083;DHT22;4577;48.704;9.000;2022-07-18T18:35:07;31.20;20.10
9083;DHT22;4577;48.704;9.000;2022-07-18T18:39:59;30.80;20.10
9083;DHT22;4577;48.704;9.000;2022-07-18T18:42:26;30.70;20.40
9083;DHT22;4577;48.704;9.000;2022-07-18T18:44:52;30.60;20.50
9083;DHT22;4577;48.704;9.000;2022-07-18T18:47:18;30.40;20.80
9083;DHT22;4577;48.704;9.000;2022-07-18T18:52:11;30.60;21.40
9083;DHT22;4577;48.704;9.000;2022-07-18T18:54:39;30.30;21.20
9083;DHT22;4577;48.704;9.000;2022-07-18T18:57:05;30.40;21.50
9083;DHT22;4577;48.704;9.000;2022-07-18T19:01:57;30.30;21.70
9083;DHT22;4577;48.704;9.000;2022-07-18T19:04:22;30.30;21.90
9083;DHT22;4577;48.704;9.000;2022-07-18T19:06:48;30.10;22.30
9083;DHT22;4577;48.704;9.000;2022-07-18T19:09:14;29.90;22.60
9083;DHT22;4577;48.704;9.000;2022-07-18T19:11:40;29.70;23.20
9083;DHT22;4577;48.704;9.000;2022-07-18T19:16:32;29.60;24.30
9083;DHT22;4577;48.704;9.000;2022-07-18T19:18:58;29.40;24.00
9083;DHT22;4577;48.704;9.000;2022-07-18T19:21:24;29.30;24.40
9083;DHT22;4577;48.704;9.000;2022-07-18T19:23:50;29.30;24.20
9083;DHT22;4577;48.704;9.000;2022-07-18T19:26:16;29.00;24.40
9083;DHT22;4577;48.704;9.000;2022-07-18T19:31:08;29.10;25.60
9083;DHT22;4577;48.704;9.000;2022-07-18T19:33:35;28.80;25.50
9083;DHT22;4577;48.704;9.000;2022-07-18T19:36:02;28.80;26.00
9083;DHT22;4577;48.704;9.000;2022-07-18T19:38:28;28.60;26.30
9083;DHT22;4577;48.704;9.000;2022-07-18T19:40:54;28.60;26.60
9083;DHT22;4577;48.704;9.000;2022-07-18T19:43:20;28.40;26.70
9083;DHT22;4577;48.704;9.000;2022-07-18T19:45:46;28.40;26.80
9083;DHT22;4577;48.704;9.000;2022-07-18T19:48:12;28.30;27.00
9083;DHT22;4577;48.704;9.000;2022-07-18T19:53:05;28.10;27.40
9083;DHT22;4577;48.704;9.000;2022-07-18T19:55:31;27.90;27.50
9083;DHT22;4577;48.704;9.000;2022-07-18T19:57:57;27.80;28.10
9083;DHT22;4577;48.704;9.000;2022-07-18T20:00:26;27.80;28.70
9083;DHT22;4577;48.704;9.000;2022-07-18T20:02:51;27.80;29.00
9083;DHT22;4577;48.704;9.000;2022-07-18T20:05:17;27.90;28.80
9083;DHT22;4577;48.704;9.000;2022-07-18T20:10:11;27.80;29.70
9083;DHT22;4577;48.704;9.000;2022-07-18T20:12:36;27.80;30.00
9083;DHT22;4577;48.704;9.000;2022-07-18T20:15:04;27.80;30.10
9083;DHT22;4577;48.704;9.000;2022-07-18T20:17:30;27.70;30.00
9083;DHT22;4577;48.704;9.000;2022-07-18T20:22:22;27.70;30.30
9083;DHT22;4577;48.704;9.000;2022-07-18T20:24:48;27.50;30.30
9083;DHT22;4577;48.704;9.000;2022-07-18T20:27:16;27.30;30.40
9083;DHT22;4577;48.704;9.000;2022-07-18T20:29:42;27.20;30.60
9083;DHT22;4577;48.704;9.000;2022-07-18T20:32:08;27.10;31.10
9083;DHT22;4577;48.704;9.000;2022-07-18T20:39:28;26.90;31.00
9083;DHT22;4577;48.704;9.000;2022-07-18T20:41:54;26.90;31.00
9083;DHT22;4577;48.704;9.000;2022-07-18T20:44:20;26.80;30.50
9083;DHT22;4577;48.704;9.000;2022-07-18T20:46:46;26.60;31.10
9083;DHT22;4577;48.704;9.000;2022-07-18T20:49:11;26.70;31.40
9083;DHT22;4577;48.704;9.000;2022-07-18T20:51:37;26.80;31.40
9083;DHT22;4577;48.704;9.000;2022-07-18T20:54:03;26.70;31.10
9083;DHT22;4577;48.704;9.000;2022-07-18T20:56:29;26.80;31.20
9083;DHT22;4577;48.704;9.000;2022-07-18T20:58:54;26.90;31.20
9083;DHT22;4577;48.704;9.000;2022-07-18T21:01:20;26.90;31.30